SWA3515 KLAS-KSAN
Flight info
| Callsign | SWA3515 |
|---|---|
| Flight time | N/A |
| Altitude | 28000 |
| Route | RADYR2 LVELL LUCKI1 |
| Aircraft | B738/M-SDE2E3FGHIRWXY/LB1 |
Departure
| Time | 2026-05-07 03:05 |
|---|---|
| Airport | Harry Reid International Airport (KLAS) |
Arrival
| Time | N/A |
|---|---|
| Airport | San Diego International Airport (KSAN) |
| Time | Latitude | Longitude | Altitude | Speed | Heading |
|---|---|---|---|---|---|
| 2026-05-07 02:43 | 36.07957 | -115.14670 | 2096 ft | 0 kts | 27° |
| 2026-05-07 02:56 | 36.07935 | -115.14684 | 2096 ft | 4 kts | 27° |
| 2026-05-07 02:56 | 36.07913 | -115.14698 | 2097 ft | 2 kts | 27° |
| 2026-05-07 02:57 | 36.07912 | -115.14699 | 2097 ft | 2 kts | 27° |
| 2026-05-07 02:59 | 36.07914 | -115.14696 | 2097 ft | 3 kts | 48° |
| 2026-05-07 02:59 | 36.07884 | -115.14639 | 2096 ft | 14 kts | 131° |
| 2026-05-07 02:59 | 36.07841 | -115.14536 | 2095 ft | 14 kts | 97° |
| 2026-05-07 02:59 | 36.07833 | -115.14422 | 2095 ft | 13 kts | 94° |
| 2026-05-07 03:00 | 36.07828 | -115.14312 | 2095 ft | 13 kts | 88° |
| 2026-05-07 03:00 | 36.07828 | -115.14204 | 2094 ft | 12 kts | 91° |
| 2026-05-07 03:00 | 36.07826 | -115.14101 | 2093 ft | 12 kts | 86° |
| 2026-05-07 03:00 | 36.07828 | -115.13998 | 2092 ft | 12 kts | 90° |
| 2026-05-07 03:01 | 36.07828 | -115.13898 | 2092 ft | 11 kts | 90° |
| 2026-05-07 03:01 | 36.07828 | -115.13799 | 2092 ft | 12 kts | 90° |
| 2026-05-07 03:01 | 36.07828 | -115.13683 | 2091 ft | 15 kts | 90° |
| 2026-05-07 03:01 | 36.07829 | -115.13539 | 2090 ft | 18 kts | 91° |
| 2026-05-07 03:02 | 36.07829 | -115.13382 | 2089 ft | 18 kts | 89° |
| 2026-05-07 03:02 | 36.07829 | -115.13236 | 2086 ft | 17 kts | 89° |
| 2026-05-07 03:02 | 36.07828 | -115.13096 | 2081 ft | 16 kts | 90° |
| 2026-05-07 03:02 | 36.07829 | -115.12947 | 2072 ft | 18 kts | 89° |
| 2026-05-07 03:03 | 36.07830 | -115.12780 | 2067 ft | 20 kts | 90° |
| 2026-05-07 03:03 | 36.07829 | -115.12607 | 2061 ft | 20 kts | 90° |
| 2026-05-07 03:03 | 36.07829 | -115.12428 | 2056 ft | 21 kts | 90° |
| 2026-05-07 03:03 | 36.07820 | -115.12258 | 2052 ft | 19 kts | 121° |
| 2026-05-07 03:04 | 36.07695 | -115.12237 | 2049 ft | 18 kts | 182° |
| 2026-05-07 03:04 | 36.07643 | -115.12302 | 2051 ft | 11 kts | 266° |
| 2026-05-07 03:04 | 36.07643 | -115.12329 | 2051 ft | 1 kts | 269° |
| 2026-05-07 03:04 | 36.07642 | -115.12548 | 2060 ft | 58 kts | 270° |
| 2026-05-07 03:05 | 36.07638 | -115.13317 | 2086 ft | 120 kts | 270° |
| 2026-05-07 03:05 | 36.07637 | -115.14579 | 2111 ft | 171 kts | 271° |
| 2026-05-07 03:05 | 36.07663 | -115.16131 | 2574 ft | 187 kts | 272° |
| 2026-05-07 03:05 | 36.07714 | -115.17783 | 3185 ft | 199 kts | 272° |
| 2026-05-07 03:06 | 36.07761 | -115.19494 | 3929 ft | 202 kts | 271° |
| 2026-05-07 03:06 | 36.07667 | -115.21281 | 4326 ft | 213 kts | 260° |
| 2026-05-07 03:06 | 36.07360 | -115.23085 | 4731 ft | 223 kts | 255° |
| 2026-05-07 03:06 | 36.06617 | -115.24861 | 4888 ft | 244 kts | 232° |
| 2026-05-07 03:07 | 36.05470 | -115.26460 | 5246 ft | 254 kts | 220° |
| 2026-05-07 03:07 | 36.03841 | -115.27463 | 5508 ft | 274 kts | 198° |
| 2026-05-07 03:07 | 36.01994 | -115.28220 | 6049 ft | 283 kts | 199° |
| 2026-05-07 03:07 | 36.00120 | -115.29030 | 6769 ft | 287 kts | 200° |
| 2026-05-07 03:08 | 35.98198 | -115.29776 | 7430 ft | 292 kts | 194° |
| 2026-05-07 03:08 | 35.96190 | -115.30297 | 8102 ft | 297 kts | 191° |
| 2026-05-07 03:08 | 35.94167 | -115.30759 | 8759 ft | 302 kts | 191° |
| 2026-05-07 03:08 | 35.92056 | -115.31236 | 9451 ft | 307 kts | 191° |
| 2026-05-07 03:09 | 35.89971 | -115.31718 | 10120 ft | 311 kts | 191° |
| 2026-05-07 03:09 | 35.87802 | -115.32231 | 10556 ft | 325 kts | 191° |
| 2026-05-07 03:09 | 35.85498 | -115.32784 | 10697 ft | 348 kts | 191° |
| 2026-05-07 03:09 | 35.83068 | -115.33372 | 11091 ft | 360 kts | 191° |
| 2026-05-07 03:10 | 35.80593 | -115.33973 | 11746 ft | 363 kts | 190° |
| 2026-05-07 03:10 | 35.78108 | -115.34580 | 12441 ft | 366 kts | 190° |
| 2026-05-07 03:10 | 35.75589 | -115.35196 | 13112 ft | 371 kts | 190° |
| 2026-05-07 03:10 | 35.73048 | -115.35817 | 13799 ft | 375 kts | 189° |
| 2026-05-07 03:11 | 35.70477 | -115.36446 | 14440 ft | 379 kts | 189° |
| 2026-05-07 03:11 | 35.67882 | -115.37081 | 15100 ft | 382 kts | 189° |
| 2026-05-07 03:11 | 35.65262 | -115.37722 | 15777 ft | 386 kts | 189° |
| 2026-05-07 03:11 | 35.62614 | -115.38368 | 16436 ft | 389 kts | 189° |
| 2026-05-07 03:12 | 35.59928 | -115.38858 | 17063 ft | 392 kts | 179° |
| 2026-05-07 03:12 | 35.57199 | -115.38762 | 17709 ft | 393 kts | 174° |
| 2026-05-07 03:12 | 35.54458 | -115.38521 | 18351 ft | 397 kts | 173° |
| 2026-05-07 03:12 | 35.51694 | -115.38253 | 18891 ft | 401 kts | 173° |
| 2026-05-07 03:13 | 35.48900 | -115.37995 | 19449 ft | 404 kts | 173° |
| 2026-05-07 03:13 | 35.46079 | -115.37758 | 20013 ft | 408 kts | 174° |
| 2026-05-07 03:13 | 35.43237 | -115.37536 | 20565 ft | 411 kts | 174° |
| 2026-05-07 03:13 | 35.40370 | -115.37325 | 21110 ft | 414 kts | 174° |
| 2026-05-07 03:14 | 35.37518 | -115.37121 | 21622 ft | 418 kts | 174° |
| 2026-05-07 03:14 | 35.34590 | -115.36915 | 22150 ft | 422 kts | 174° |
| 2026-05-07 03:14 | 35.23581 | -115.36140 | 24049 ft | 431 kts | 174° |
| 2026-05-07 03:15 | 35.11655 | -115.35303 | 26308 ft | 425 kts | 174° |
| 2026-05-07 03:15 | 34.99882 | -115.34481 | 28151 ft | 427 kts | 174° |
| 2026-05-07 03:15 | 34.87559 | -115.33620 | 28145 ft | 456 kts | 174° |
| 2026-05-07 03:15 | 34.74997 | -115.33724 | 27836 ft | 449 kts | 196° |
| 2026-05-07 03:16 | 34.63773 | -115.39239 | 27858 ft | 424 kts | 200° |
| 2026-05-07 03:16 | 34.60298 | -115.40886 | 27900 ft | 426 kts | 199° |
| 2026-05-07 03:16 | 34.57496 | -115.42135 | 27937 ft | 433 kts | 198° |
| 2026-05-07 03:16 | 34.54644 | -115.43377 | 27936 ft | 437 kts | 198° |
| 2026-05-07 03:17 | 34.51825 | -115.44596 | 27927 ft | 436 kts | 198° |
| 2026-05-07 03:17 | 34.48974 | -115.45830 | 27923 ft | 435 kts | 198° |
| 2026-05-07 03:17 | 34.46121 | -115.47068 | 27922 ft | 434 kts | 198° |
| 2026-05-07 03:17 | 34.43280 | -115.48303 | 27935 ft | 434 kts | 198° |
| 2026-05-07 03:18 | 34.40442 | -115.49538 | 27923 ft | 434 kts | 198° |
| 2026-05-07 03:18 | 34.37603 | -115.50773 | 27927 ft | 433 kts | 198° |
| 2026-05-07 03:18 | 34.34763 | -115.52006 | 27932 ft | 433 kts | 198° |
| 2026-05-07 03:18 | 34.31942 | -115.53303 | 27927 ft | 435 kts | 204° |
| 2026-05-07 03:19 | 34.29316 | -115.55130 | 27949 ft | 436 kts | 212° |
| 2026-05-07 03:19 | 34.26778 | -115.57143 | 27932 ft | 437 kts | 212° |
| 2026-05-07 03:19 | 34.24213 | -115.59126 | 27933 ft | 437 kts | 211° |
| 2026-05-07 03:19 | 34.21626 | -115.61057 | 27937 ft | 437 kts | 210° |
| 2026-05-07 03:20 | 34.18927 | -115.62738 | 27927 ft | 436 kts | 201° |
| 2026-05-07 03:20 | 34.16145 | -115.64060 | 27935 ft | 436 kts | 198° |
| 2026-05-07 03:20 | 34.13288 | -115.65317 | 27942 ft | 436 kts | 197° |
| 2026-05-07 03:20 | 34.10438 | -115.66571 | 27952 ft | 436 kts | 198° |
| 2026-05-07 03:21 | 34.07594 | -115.67854 | 27944 ft | 436 kts | 198° |
| 2026-05-07 03:21 | 34.04758 | -115.69165 | 27915 ft | 436 kts | 199° |
| 2026-05-07 03:21 | 34.01944 | -115.70486 | 27616 ft | 431 kts | 199° |
| 2026-05-07 03:21 | 33.99173 | -115.71796 | 27356 ft | 425 kts | 199° |
| 2026-05-07 03:22 | 33.96447 | -115.73084 | 27106 ft | 418 kts | 199° |
| 2026-05-07 03:22 | 33.93752 | -115.74353 | 26847 ft | 413 kts | 199° |
| 2026-05-07 03:22 | 33.91128 | -115.75592 | 26614 ft | 408 kts | 199° |
| 2026-05-07 03:22 | 33.88506 | -115.76869 | 26362 ft | 404 kts | 199° |
| 2026-05-07 03:23 | 33.85920 | -115.78148 | 26115 ft | 400 kts | 200° |
| 2026-05-07 03:23 | 33.83349 | -115.79418 | 25869 ft | 396 kts | 200° |
| 2026-05-07 03:23 | 33.80792 | -115.80675 | 25635 ft | 397 kts | 199° |
| 2026-05-07 03:23 | 33.78225 | -115.81932 | 25402 ft | 400 kts | 199° |
| 2026-05-07 03:24 | 33.75635 | -115.83187 | 25174 ft | 401 kts | 199° |
| 2026-05-07 03:24 | 33.73047 | -115.84405 | 24935 ft | 398 kts | 199° |
| 2026-05-07 03:24 | 33.70466 | -115.85606 | 24692 ft | 396 kts | 199° |
| 2026-05-07 03:24 | 33.67905 | -115.86796 | 24457 ft | 394 kts | 199° |
| 2026-05-07 03:25 | 33.65354 | -115.87984 | 24241 ft | 392 kts | 199° |
| 2026-05-07 03:25 | 33.62814 | -115.89169 | 24038 ft | 391 kts | 199° |
| 2026-05-07 03:25 | 33.60287 | -115.90349 | 23991 ft | 390 kts | 199° |
| 2026-05-07 03:25 | 33.57752 | -115.91532 | 23964 ft | 391 kts | 199° |
| 2026-05-07 03:26 | 33.55247 | -115.92701 | 23966 ft | 391 kts | 199° |
| 2026-05-07 03:26 | 33.52729 | -115.93952 | 23942 ft | 393 kts | 208° |
| 2026-05-07 03:26 | 33.50570 | -115.95954 | 23764 ft | 396 kts | 229° |
| 2026-05-07 03:26 | 33.48937 | -115.98633 | 23284 ft | 398 kts | 237° |
| 2026-05-07 03:27 | 33.47386 | -116.01393 | 22787 ft | 400 kts | 238° |
| 2026-05-07 03:27 | 33.45829 | -116.04154 | 22325 ft | 400 kts | 237° |
| 2026-05-07 03:27 | 33.44263 | -116.06902 | 21879 ft | 399 kts | 237° |
| 2026-05-07 03:27 | 33.42688 | -116.09638 | 21439 ft | 399 kts | 237° |